createdAt,value
2018-12-10T00:00:23.884Z,50.33
2018-12-10T00:00:55.040Z,51.70
2018-12-10T00:01:26.135Z,53.45
2018-12-10T00:01:57.240Z,50.30
2018-12-10T00:02:28.372Z,51.30
2018-12-10T00:02:59.553Z,53.55
2018-12-10T00:03:30.661Z,50.73
2018-12-10T00:04:01.785Z,51.33
2018-12-10T00:04:32.955Z,49.90
2018-12-10T00:05:04.081Z,54.05
2018-12-10T00:05:35.194Z,53.38
2018-12-10T00:06:06.329Z,46.33
2018-12-10T00:06:38.087Z,50.92
2018-12-10T00:07:09.201Z,50.67
2018-12-10T00:07:40.303Z,51.68
2018-12-10T00:08:11.971Z,51.53
2018-12-10T00:08:43.853Z,49.13
2018-12-10T00:09:15.441Z,53.02
2018-12-10T00:09:46.565Z,49.90
2018-12-10T00:10:17.828Z,50.48
2018-12-10T00:10:48.991Z,53.52
2018-12-10T00:11:20.138Z,54.85
2018-12-10T00:11:51.247Z,52.20
2018-12-10T00:12:22.351Z,47.67
2018-12-10T00:12:53.476Z,52.88
2018-12-10T00:13:24.620Z,49.27
2018-12-10T00:13:55.843Z,48.95
2018-12-10T00:14:26.974Z,47.30
2018-12-10T00:14:58.114Z,49.23
2018-12-10T00:15:29.237Z,47.20
2018-12-10T00:16:00.345Z,50.60
2018-12-10T00:16:31.448Z,51.02
2018-12-10T00:17:02.548Z,49.63
2018-12-10T00:17:33.645Z,48.38
2018-12-10T00:18:04.760Z,50.70
2018-12-10T00:18:36.482Z,48.50
2018-12-10T00:19:08.509Z,49.35
2018-12-10T00:19:39.654Z,49.65
2018-12-10T00:20:10.774Z,48.78
2018-12-10T00:20:41.908Z,46.48
2018-12-10T00:21:13.017Z,47.20
2018-12-10T00:21:44.209Z,49.88
2018-12-10T00:22:15.319Z,49.88
2018-12-10T00:22:46.425Z,47.40
2018-12-10T00:23:18.293Z,46.98
2018-12-10T00:23:49.418Z,50.43
2018-12-10T00:24:20.565Z,47.98
2018-12-10T00:24:51.753Z,48.28
2018-12-10T00:25:22.876Z,52.67
2018-12-10T00:25:53.979Z,47.85
2018-12-10T00:26:25.119Z,49.48
2018-12-10T00:26:56.243Z,53.87
2018-12-10T00:27:27.377Z,50.40
2018-12-10T00:27:59.092Z,53.80
2018-12-10T00:28:30.198Z,51.70
2018-12-10T00:29:01.316Z,51.88
2018-12-10T00:29:32.425Z,52.05
2018-12-10T00:30:03.608Z,52.17
2018-12-10T00:30:35.675Z,48.33
2018-12-10T00:31:06.895Z,52.78
2018-12-10T00:31:38.924Z,49.55
2018-12-10T00:32:10.085Z,54.90
2018-12-10T00:32:41.196Z,52.23
2018-12-10T00:33:12.303Z,49.45
2018-12-10T00:33:43.434Z,52.33
2018-12-10T00:34:14.563Z,53.68
2018-12-10T00:34:46.389Z,54.58
2018-12-10T00:35:17.573Z,55.28
2018-12-10T00:35:48.675Z,53.87
2018-12-10T00:36:19.823Z,49.50
2018-12-10T00:36:50.930Z,49.53
2018-12-10T00:37:22.211Z,51.58
2018-12-10T00:37:54.450Z,52.67
2018-12-10T00:38:25.668Z,52.73
2018-12-10T00:38:56.771Z,49.95
2018-12-10T00:39:27.892Z,57.38
2018-12-10T00:39:59.003Z,53.42
2018-12-10T00:40:30.143Z,52.00
2018-12-10T00:41:01.247Z,51.05
2018-12-10T00:41:32.385Z,52.25
2018-12-10T00:42:04.146Z,55.35
2018-12-10T00:42:35.282Z,54.55
2018-12-10T00:43:06.382Z,55.73
2018-12-10T00:43:38.253Z,50.63
2018-12-10T00:44:09.459Z,54.27
2018-12-10T00:44:40.619Z,58.58
2018-12-10T00:45:11.760Z,52.88
2018-12-10T00:45:42.881Z,55.00
2018-12-10T00:46:14.007Z,54.18
2018-12-10T00:46:45.113Z,51.75
2018-12-10T00:47:16.239Z,54.60
2018-12-10T00:47:47.398Z,53.58
2018-12-10T00:48:18.504Z,54.83
2018-12-10T00:48:49.629Z,51.00
2018-12-10T00:49:20.741Z,58.58
2018-12-10T00:49:51.875Z,55.12
2018-12-10T00:50:22.983Z,51.85
2018-12-10T00:50:54.084Z,52.45
2018-12-10T00:51:25.190Z,53.85
2018-12-10T00:51:56.330Z,53.42
2018-12-10T00:52:27.428Z,59.42
2018-12-10T00:52:58.539Z,55.05
2018-12-10T00:53:29.646Z,55.40
2018-12-10T00:54:00.768Z,51.15
2018-12-10T00:54:31.877Z,51.92
2018-12-10T00:55:02.987Z,50.83
2018-12-10T00:55:34.090Z,52.80
2018-12-10T00:56:05.202Z,54.18
2018-12-10T00:56:36.322Z,54.13
2018-12-10T00:57:07.565Z,51.75
2018-12-10T00:57:38.719Z,54.67
2018-12-10T00:58:09.872Z,54.53
2018-12-10T00:58:40.980Z,50.25
2018-12-10T00:59:12.186Z,49.67
2018-12-10T00:59:43.341Z,53.83
2018-12-10T01:00:14.470Z,53.65
2018-12-10T01:00:45.633Z,49.80
2018-12-10T01:01:16.755Z,49.65
2018-12-10T01:01:48.040Z,49.00
2018-12-10T01:02:19.165Z,50.90
2018-12-10T01:02:50.283Z,52.90
2018-12-10T01:03:21.394Z,45.85
2018-12-10T01:03:52.568Z,50.03
2018-12-10T01:04:23.721Z,46.18
2018-12-10T01:04:54.938Z,47.33
2018-12-10T01:05:26.169Z,47.65
2018-12-10T01:05:57.281Z,48.10
2018-12-10T01:06:28.392Z,48.48
2018-12-10T01:06:59.535Z,45.83
2018-12-10T01:07:30.685Z,45.63
2018-12-10T01:08:01.808Z,49.98
2018-12-10T01:08:32.941Z,50.73
2018-12-10T01:09:04.041Z,47.62
2018-12-10T01:09:35.145Z,47.85
2018-12-10T01:10:06.276Z,49.63
2018-12-10T01:10:37.380Z,45.73
2018-12-10T01:11:08.553Z,47.15
2018-12-10T01:11:39.760Z,47.40
2018-12-10T01:12:10.913Z,47.50
2018-12-10T01:12:42.018Z,46.42
2018-12-10T01:13:13.133Z,47.45
2018-12-10T01:13:44.235Z,47.95
2018-12-10T01:14:15.360Z,45.90
2018-12-10T01:14:46.478Z,47.85
2018-12-10T01:15:17.603Z,44.38
2018-12-10T01:15:48.717Z,46.65
2018-12-10T01:16:19.825Z,49.27
2018-12-10T01:16:51.007Z,47.05
2018-12-10T01:17:22.118Z,48.98
2018-12-10T01:17:53.228Z,48.00
2018-12-10T01:18:24.347Z,47.20
2018-12-10T01:18:55.449Z,49.80
2018-12-10T01:19:26.554Z,45.15
2018-12-10T01:19:57.831Z,43.40
2018-12-10T01:20:28.946Z,40.00
2018-12-10T01:21:00.069Z,42.08
2018-12-10T01:21:31.211Z,41.80
2018-12-10T01:22:02.308Z,45.05
2018-12-10T01:22:33.430Z,41.73
2018-12-10T01:23:04.598Z,42.55
2018-12-10T01:23:35.717Z,42.62
2018-12-10T01:24:06.845Z,40.90
2018-12-10T01:24:38.001Z,39.40
2018-12-10T01:25:09.105Z,41.80
2018-12-10T01:25:40.210Z,43.83
2018-12-10T01:26:11.312Z,41.50
2018-12-10T01:26:42.430Z,41.50
2018-12-10T01:27:13.553Z,40.12
2018-12-10T01:27:44.706Z,43.55
2018-12-10T01:28:15.919Z,42.88
2018-12-10T01:28:47.026Z,40.25
2018-12-10T01:29:18.138Z,36.98
2018-12-10T01:29:49.280Z,40.78
2018-12-10T01:30:20.392Z,37.85
2018-12-10T01:30:51.493Z,37.30
2018-12-10T01:31:22.665Z,39.75
2018-12-10T01:31:53.775Z,41.20
2018-12-10T01:32:24.894Z,39.38
2018-12-10T01:32:56.752Z,35.52
2018-12-10T01:33:27.856Z,38.98
2018-12-10T01:33:58.963Z,38.92
2018-12-10T01:34:30.088Z,40.33
2018-12-10T01:35:01.232Z,37.23
2018-12-10T01:35:32.349Z,37.95
2018-12-10T01:36:03.461Z,35.30
2018-12-10T01:36:34.580Z,43.63
2018-12-10T01:37:05.779Z,39.85
2018-12-10T01:37:36.928Z,42.33
2018-12-10T01:38:08.052Z,39.55
2018-12-10T01:38:39.164Z,40.67
2018-12-10T01:39:10.288Z,41.63
2018-12-10T01:39:41.392Z,37.90
2018-12-10T01:40:12.527Z,42.83
2018-12-10T01:40:43.628Z,39.83
2018-12-10T01:41:14.737Z,42.98
2018-12-10T01:41:45.842Z,44.58
2018-12-10T01:42:16.957Z,46.85
2018-12-10T01:42:48.070Z,43.30
2018-12-10T01:43:19.176Z,46.85
2018-12-10T01:43:50.325Z,44.95
2018-12-10T01:44:21.477Z,46.73
2018-12-10T01:44:52.714Z,46.30
2018-12-10T01:45:23.853Z,46.15
2018-12-10T01:45:54.958Z,44.85
2018-12-10T01:46:26.056Z,49.05
2018-12-10T01:46:57.161Z,46.73
2018-12-10T01:47:28.266Z,47.30
2018-12-10T01:47:59.504Z,46.83
2018-12-10T01:48:30.614Z,46.98
2018-12-10T01:49:01.720Z,51.48
2018-12-10T01:49:32.827Z,44.77
2018-12-10T01:50:04.003Z,48.08
2018-12-10T01:50:35.113Z,48.95
2018-12-10T01:51:06.223Z,44.98
2018-12-10T01:51:37.316Z,45.73
2018-12-10T01:52:08.416Z,46.80
2018-12-10T01:52:39.531Z,46.83
2018-12-10T01:53:10.638Z,48.70
2018-12-10T01:53:41.761Z,44.58
2018-12-10T01:54:12.904Z,47.30
2018-12-10T01:54:44.012Z,44.83
2018-12-10T01:55:15.171Z,46.23
2018-12-10T01:55:46.277Z,45.35
2018-12-10T01:56:17.379Z,43.42
2018-12-10T01:56:48.485Z,49.13
2018-12-10T01:57:19.588Z,48.80
2018-12-10T01:57:50.688Z,50.35
2018-12-10T01:58:21.797Z,50.43
2018-12-10T01:58:53.781Z,50.52
2018-12-10T01:59:24.884Z,49.53
2018-12-10T01:59:55.991Z,48.80
2018-12-10T02:00:27.145Z,44.48
2018-12-10T02:00:58.251Z,45.73
2018-12-10T02:01:29.363Z,43.05
2018-12-10T02:02:00.462Z,45.88
2018-12-10T02:02:31.576Z,42.88
2018-12-10T02:03:02.681Z,41.02
2018-12-10T02:03:33.790Z,41.92
2018-12-10T02:04:04.890Z,42.53
2018-12-10T02:04:36.005Z,41.70
2018-12-10T02:05:07.114Z,50.65
2018-12-10T02:05:38.273Z,43.23
2018-12-10T02:06:09.389Z,43.50
2018-12-10T02:06:40.537Z,46.80
2018-12-10T02:07:11.640Z,44.03
2018-12-10T02:07:42.741Z,44.93
2018-12-10T02:08:13.848Z,48.15
2018-12-10T02:08:44.967Z,43.95
2018-12-10T02:09:16.105Z,46.63
2018-12-10T02:09:47.214Z,45.23
2018-12-10T02:10:18.329Z,46.05
2018-12-10T02:10:49.469Z,44.08
2018-12-10T02:11:20.591Z,41.58
2018-12-10T02:11:51.695Z,43.35
2018-12-10T02:12:22.800Z,41.80
2018-12-10T02:12:53.905Z,43.90
2018-12-10T02:13:25.082Z,41.80
2018-12-10T02:13:56.185Z,41.23
2018-12-10T02:14:27.294Z,40.20
2018-12-10T02:14:58.399Z,42.38
2018-12-10T02:15:29.511Z,39.85
2018-12-10T02:16:00.863Z,42.40
2018-12-10T02:16:31.982Z,45.10
2018-12-10T02:17:03.101Z,42.33
2018-12-10T02:17:34.207Z,41.28
2018-12-10T02:18:05.336Z,43.30
2018-12-10T02:18:36.438Z,45.35
2018-12-10T02:19:07.575Z,44.65
2018-12-10T02:19:38.699Z,47.33
2018-12-10T02:20:09.805Z,42.83
2018-12-10T02:20:40.931Z,46.18
2018-12-10T02:21:12.092Z,39.92
2018-12-10T02:21:43.249Z,42.38
2018-12-10T02:22:14.366Z,43.50
2018-12-10T02:22:45.636Z,44.58
2018-12-10T02:23:16.818Z,47.20
2018-12-10T02:23:48.018Z,44.00
2018-12-10T02:24:19.153Z,40.73
2018-12-10T02:24:50.277Z,43.45
2018-12-10T02:25:21.415Z,43.10
2018-12-10T02:25:52.540Z,46.15
2018-12-10T02:26:23.656Z,47.67
2018-12-10T02:26:54.812Z,45.00
2018-12-10T02:27:25.914Z,49.65
2018-12-10T02:27:57.020Z,45.90
2018-12-10T02:28:28.152Z,44.15
2018-12-10T02:28:59.256Z,46.10
2018-12-10T02:29:30.378Z,43.63
2018-12-10T02:30:01.503Z,44.88
2018-12-10T02:30:32.599Z,47.75
2018-12-10T02:31:03.834Z,47.33
2018-12-10T02:31:35.076Z,50.12
2018-12-10T02:32:06.241Z,49.13
2018-12-10T02:32:37.348Z,47.85
2018-12-10T02:33:08.469Z,44.40
2018-12-10T02:33:39.596Z,41.65
2018-12-10T02:34:10.713Z,44.98
2018-12-10T02:34:41.822Z,45.83
2018-12-10T02:35:12.939Z,47.15
2018-12-10T02:35:44.040Z,49.20
2018-12-10T02:36:15.166Z,48.92
2018-12-10T02:36:46.271Z,47.03
2018-12-10T02:37:17.410Z,45.70
2018-12-10T02:37:48.527Z,46.90
2018-12-10T02:38:19.650Z,43.50
2018-12-10T02:38:50.760Z,44.45
2018-12-10T02:39:21.880Z,46.85
2018-12-10T02:39:52.977Z,51.88
2018-12-10T02:40:24.127Z,46.42
2018-12-10T02:40:55.286Z,47.85
2018-12-10T02:41:26.398Z,50.85
2018-12-10T02:41:57.518Z,49.60
2018-12-10T02:42:28.632Z,48.85
2018-12-10T02:42:59.741Z,47.17
2018-12-10T02:43:30.853Z,48.48
2018-12-10T02:44:01.961Z,45.30
2018-12-10T02:44:33.065Z,44.55
2018-12-10T02:45:04.173Z,48.65
2018-12-10T02:45:35.320Z,52.78
2018-12-10T02:46:06.461Z,54.20
2018-12-10T02:46:39.721Z,61.85
2018-12-10T02:47:10.834Z,67.65
2018-12-10T02:47:41.944Z,55.40
2018-12-10T02:48:13.107Z,52.98
2018-12-10T02:48:44.895Z,58.08
2018-12-10T02:49:16.051Z,56.48
2018-12-10T02:49:47.825Z,57.38
2018-12-10T02:50:18.983Z,58.38
2018-12-10T02:50:50.141Z,59.53
2018-12-10T02:51:21.265Z,57.67
2018-12-10T02:51:52.392Z,50.48
2018-12-10T02:52:23.542Z,61.92
2018-12-10T02:52:54.673Z,75.05
2018-12-10T02:53:25.788Z,75.95
2018-12-10T02:53:56.907Z,61.23
2018-12-10T02:54:28.010Z,49.48
2018-12-10T02:54:59.117Z,53.50
2018-12-10T02:55:30.239Z,54.77
2018-12-10T02:56:01.465Z,51.33
2018-12-10T02:56:32.646Z,47.58
2018-12-10T02:57:03.805Z,50.28
2018-12-10T02:57:34.913Z,46.55
2018-12-10T02:58:06.062Z,48.42
2018-12-10T02:58:37.187Z,44.85
2018-12-10T02:59:08.299Z,44.75
2018-12-10T02:59:39.460Z,42.73
2018-12-10T03:00:10.600Z,45.75
2018-12-10T03:00:41.810Z,45.75
2018-12-10T03:01:12.996Z,45.20
2018-12-10T03:01:44.099Z,49.23
2018-12-10T03:02:15.218Z,47.43
2018-12-10T03:02:46.333Z,43.55
2018-12-10T03:03:18.488Z,49.10
2018-12-10T03:03:49.609Z,47.45
2018-12-10T03:04:20.729Z,43.63
2018-12-10T03:04:51.877Z,47.05
2018-12-10T03:05:22.989Z,46.63
2018-12-10T03:05:54.107Z,49.33
2018-12-10T03:06:25.237Z,46.63
2018-12-10T03:06:56.401Z,47.27
2018-12-10T03:07:27.522Z,43.08
2018-12-10T03:07:58.656Z,43.90
2018-12-10T03:08:33.701Z,43.45
2018-12-10T03:09:04.811Z,43.38
2018-12-10T03:09:35.994Z,44.35
2018-12-10T03:10:07.112Z,43.45
2018-12-10T03:10:38.265Z,44.85
2018-12-10T03:11:09.446Z,43.10
2018-12-10T03:11:40.588Z,39.13
2018-12-10T03:12:11.721Z,45.05
2018-12-10T03:12:42.835Z,46.58
2018-12-10T03:13:13.945Z,45.43
2018-12-10T03:13:45.082Z,46.70
2018-12-10T03:14:16.211Z,43.50
2018-12-10T03:14:47.391Z,49.23
2018-12-10T03:15:18.507Z,47.20
2018-12-10T03:15:49.640Z,48.33
2018-12-10T03:16:20.755Z,46.08
2018-12-10T03:16:51.872Z,50.38
2018-12-10T03:17:23.003Z,52.62
2018-12-10T03:17:54.111Z,48.75
2018-12-10T03:18:25.257Z,48.02
2018-12-10T03:18:57.149Z,49.18
2018-12-10T03:19:28.262Z,50.58
2018-12-10T03:19:59.387Z,46.83
2018-12-10T03:20:30.518Z,53.28
2018-12-10T03:21:01.656Z,55.58
2018-12-10T03:21:32.769Z,52.95
2018-12-10T03:22:03.893Z,49.80
2018-12-10T03:22:35.009Z,50.70
2018-12-10T03:23:06.130Z,53.63
2018-12-10T03:23:37.297Z,52.25
2018-12-10T03:24:08.458Z,50.78
2018-12-10T03:24:40.620Z,49.93
2018-12-10T03:25:11.743Z,53.60
2018-12-10T03:25:42.858Z,57.98
2018-12-10T03:26:14.006Z,52.40
2018-12-10T03:26:45.114Z,52.62
2018-12-10T03:27:16.227Z,61.02
2018-12-10T03:27:47.353Z,53.83
2018-12-10T03:28:18.489Z,55.20
2018-12-10T03:28:49.652Z,56.10
2018-12-10T03:29:20.768Z,55.15
2018-12-10T03:29:51.886Z,52.98
2018-12-10T03:30:23.529Z,55.00
2018-12-10T03:30:55.178Z,55.35
2018-12-10T03:31:26.367Z,56.25
2018-12-10T03:31:57.482Z,55.90
2018-12-10T03:32:28.614Z,58.00
2018-12-10T03:32:59.752Z,66.05
2018-12-10T03:33:30.906Z,60.63
2018-12-10T03:34:02.053Z,59.83
2018-12-10T03:34:33.183Z,60.38
2018-12-10T03:35:04.292Z,61.65
2018-12-10T03:35:35.389Z,61.65
2018-12-10T03:36:06.522Z,62.38
2018-12-10T03:36:37.663Z,58.20
2018-12-10T03:37:08.808Z,64.85
2018-12-10T03:37:39.908Z,66.02
2018-12-10T03:38:11.031Z,61.70
2018-12-10T03:38:42.176Z,63.70
2018-12-10T03:39:13.324Z,66.95
2018-12-10T03:39:44.526Z,60.12
2018-12-10T03:40:15.653Z,67.58
2018-12-10T03:40:46.838Z,69.90
2018-12-10T03:41:17.946Z,71.28
2018-12-10T03:41:49.053Z,67.12
2018-12-10T03:42:20.824Z,70.65
2018-12-10T03:42:51.942Z,64.87
2018-12-10T03:43:23.039Z,67.97
2018-12-10T03:43:54.201Z,68.62
2018-12-10T03:44:25.443Z,73.10
2018-12-10T03:44:56.574Z,66.17
2018-12-10T03:45:27.727Z,69.05
2018-12-10T03:45:59.413Z,68.20
2018-12-10T03:46:30.641Z,62.10
2018-12-10T03:47:01.825Z,62.48
2018-12-10T03:47:33.015Z,74.62
2018-12-10T03:48:04.150Z,68.05
2018-12-10T03:48:35.285Z,69.17
2018-12-10T03:49:06.396Z,71.67
2018-12-10T03:49:37.522Z,70.62
2018-12-10T03:50:08.641Z,74.92
2018-12-10T03:50:39.739Z,75.25
2018-12-10T03:51:10.847Z,70.85
2018-12-10T03:51:41.954Z,62.30
2018-12-10T03:52:13.161Z,65.75
2018-12-10T03:52:44.309Z,69.67
2018-12-10T03:53:15.404Z,66.50
2018-12-10T03:53:46.551Z,72.00
2018-12-10T03:54:17.658Z,71.80
2018-12-10T03:54:48.781Z,70.17
2018-12-10T03:55:19.891Z,71.33
2018-12-10T03:55:51.008Z,67.85
2018-12-10T03:56:22.127Z,67.80
2018-12-10T03:56:53.232Z,73.22
2018-12-10T03:57:24.360Z,71.75
2018-12-10T03:57:56.286Z,71.82
2018-12-10T03:58:27.431Z,75.28
2018-12-10T03:58:58.931Z,67.82
2018-12-10T03:59:30.084Z,65.08
2018-12-10T04:00:01.241Z,61.25
2018-12-10T04:00:33.188Z,66.92
2018-12-10T04:01:04.283Z,67.80
2018-12-10T04:01:35.419Z,65.67
2018-12-10T04:02:06.545Z,64.42
2018-12-10T04:02:37.672Z,65.40
2018-12-10T04:03:08.790Z,64.03
2018-12-10T04:03:39.927Z,64.45
2018-12-10T04:04:11.082Z,61.28
2018-12-10T04:04:42.226Z,63.63
2018-12-10T04:05:13.348Z,62.15
2018-12-10T04:05:44.493Z,61.88
2018-12-10T04:06:15.646Z,55.95
2018-12-10T04:06:46.773Z,57.15
2018-12-10T04:07:17.931Z,59.63
2018-12-10T04:07:49.165Z,58.10
2018-12-10T04:08:20.314Z,58.60
2018-12-10T04:08:52.007Z,59.03
2018-12-10T04:09:23.143Z,63.13
2018-12-10T04:09:55.629Z,61.45
2018-12-10T04:10:26.764Z,61.33
2018-12-10T04:10:58.556Z,55.25
2018-12-10T04:11:29.686Z,56.98
2018-12-10T04:12:00.792Z,58.30
2018-12-10T04:12:31.942Z,60.60
2018-12-10T04:13:03.077Z,60.05
2018-12-10T04:13:34.187Z,58.87
2018-12-10T04:14:05.349Z,55.35
2018-12-10T04:14:36.476Z,60.30
2018-12-10T04:15:07.608Z,60.48
2018-12-10T04:15:38.781Z,63.73
2018-12-10T04:16:09.918Z,56.95
2018-12-10T04:16:41.016Z,56.77
2018-12-10T04:17:12.166Z,60.65
2018-12-10T04:17:43.325Z,62.93
2018-12-10T04:18:14.555Z,58.78
2018-12-10T04:18:45.716Z,60.80
2018-12-10T04:19:16.901Z,59.45
2018-12-10T04:19:49.044Z,60.80
2018-12-10T04:20:20.203Z,58.10
2018-12-10T04:20:51.487Z,58.05
2018-12-10T04:21:23.370Z,57.55
2018-12-10T04:21:54.746Z,58.87
2018-12-10T04:22:25.878Z,58.48
2018-12-10T04:22:56.990Z,55.73
2018-12-10T04:23:28.105Z,63.13
2018-12-10T04:23:59.292Z,64.00
2018-12-10T04:24:30.552Z,67.32
2018-12-10T04:25:01.699Z,58.98
2018-12-10T04:25:32.869Z,60.03
2018-12-10T04:26:04.252Z,61.60
2018-12-10T04:26:35.415Z,59.73
2018-12-10T04:27:06.591Z,59.73
2018-12-10T04:27:37.735Z,62.17
2018-12-10T04:28:08.908Z,60.75
2018-12-10T04:28:40.081Z,60.75
2018-12-10T04:29:11.242Z,59.42
2018-12-10T04:29:42.381Z,60.38
2018-12-10T04:30:13.494Z,67.35
2018-12-10T04:30:44.628Z,62.45
2018-12-10T04:31:15.893Z,63.00
2018-12-10T04:31:47.043Z,64.37
2018-12-10T04:32:18.215Z,64.22
2018-12-10T04:32:49.326Z,62.33
2018-12-10T04:33:20.476Z,63.05
2018-12-10T04:33:52.157Z,59.55
2018-12-10T04:34:24.043Z,61.53
2018-12-10T04:34:55.192Z,60.00
2018-12-10T04:35:26.300Z,60.43
2018-12-10T04:35:57.448Z,57.80
2018-12-10T04:36:28.567Z,59.75
2018-12-10T04:36:59.705Z,58.13
2018-12-10T04:37:30.872Z,64.50
2018-12-10T04:38:02.004Z,61.28
2018-12-10T04:38:33.146Z,60.88
2018-12-10T04:39:04.316Z,60.17
2018-12-10T04:39:35.479Z,59.25
2018-12-10T04:40:06.653Z,60.52
2018-12-10T04:40:37.769Z,62.67
2018-12-10T04:41:08.912Z,60.92
2018-12-10T04:41:40.108Z,60.40
2018-12-10T04:42:11.341Z,62.40
2018-12-10T04:42:42.466Z,60.75
2018-12-10T04:43:13.586Z,57.78
2018-12-10T04:43:44.711Z,63.80
2018-12-10T04:44:15.824Z,62.60
2018-12-10T04:44:46.935Z,61.25
2018-12-10T04:45:18.132Z,62.50
2018-12-10T04:45:49.244Z,60.80
2018-12-10T04:46:20.347Z,60.48
2018-12-10T04:46:51.461Z,61.77
2018-12-10T04:47:22.627Z,61.65
2018-12-10T04:47:53.795Z,62.38
2018-12-10T04:48:24.907Z,61.55
2018-12-10T04:48:56.005Z,59.70
2018-12-10T04:49:27.135Z,59.40
2018-12-10T04:49:58.236Z,60.23
2018-12-10T04:50:29.376Z,61.85
2018-12-10T04:51:00.541Z,62.90
2018-12-10T04:51:31.668Z,61.63
2018-12-10T04:52:02.770Z,67.50
2018-12-10T04:52:34.118Z,57.58
2018-12-10T04:53:05.257Z,59.88
2018-12-10T04:53:36.394Z,60.73
2018-12-10T04:54:07.618Z,59.13
2018-12-10T04:54:38.842Z,58.15
2018-12-10T04:55:10.021Z,59.70
2018-12-10T04:55:41.333Z,62.55
2018-12-10T04:56:12.486Z,61.33
2018-12-10T04:56:43.591Z,62.70
2018-12-10T04:57:14.830Z,61.73
2018-12-10T04:57:45.935Z,65.03
2018-12-10T04:58:17.090Z,61.77
2018-12-10T04:58:48.199Z,65.25
2018-12-10T04:59:19.325Z,64.90
2018-12-10T04:59:52.834Z,62.35
2018-12-10T05:00:23.642Z,58.05
2018-12-10T05:00:55.871Z,63.17
2018-12-10T05:01:27.063Z,65.12
2018-12-10T05:01:58.227Z,64.90
2018-12-10T05:02:29.405Z,64.05
2018-12-10T05:03:00.556Z,64.10
2018-12-10T05:03:31.695Z,63.45
2018-12-10T05:04:02.816Z,65.28
2018-12-10T05:04:34.802Z,65.95
2018-12-10T05:05:05.931Z,68.33
2018-12-10T05:05:37.524Z,65.57
2018-12-10T05:06:08.642Z,61.98
2018-12-10T05:06:39.762Z,64.55
2018-12-10T05:07:10.886Z,61.15
2018-12-10T05:07:42.000Z,61.90
2018-12-10T05:08:13.096Z,58.78
2018-12-10T05:08:44.258Z,65.55
2018-12-10T05:09:15.370Z,68.10
2018-12-10T05:09:46.507Z,64.10
2018-12-10T05:10:17.654Z,79.92
2018-12-10T05:10:48.754Z,86.72
2018-12-10T05:11:19.894Z,76.70
2018-12-10T05:11:53.290Z,70.45
2018-12-10T05:12:24.565Z,76.53
2018-12-10T05:12:55.718Z,71.20
2018-12-10T05:13:26.829Z,67.08
2018-12-10T05:13:57.928Z,68.00
2018-12-10T05:14:29.044Z,65.60
2018-12-10T05:15:00.157Z,67.55
2018-12-10T05:15:31.263Z,62.40
2018-12-10T05:16:02.409Z,62.65
2018-12-10T05:16:33.540Z,68.45
2018-12-10T05:17:04.647Z,59.77
2018-12-10T05:17:35.753Z,63.52
2018-12-10T05:18:06.881Z,60.30
2018-12-10T05:18:37.992Z,67.62
2018-12-10T05:19:09.113Z,70.25
2018-12-10T05:19:40.283Z,78.00
2018-12-10T05:20:11.391Z,79.82
2018-12-10T05:20:42.542Z,70.60
2018-12-10T05:21:13.662Z,75.65
2018-12-10T05:21:44.828Z,72.60
2018-12-10T05:22:15.963Z,77.35
2018-12-10T05:22:47.077Z,75.62
2018-12-10T05:23:18.212Z,86.53
2018-12-10T05:23:49.328Z,80.57
2018-12-10T05:24:20.448Z,84.58
2018-12-10T05:24:51.563Z,81.28
2018-12-10T05:25:22.693Z,84.17
2018-12-10T05:25:53.838Z,85.65
2018-12-10T05:26:25.000Z,80.00
2018-12-10T05:26:56.129Z,77.97
2018-12-10T05:27:27.237Z,73.37
2018-12-10T05:27:58.355Z,81.87
2018-12-10T05:28:29.461Z,82.88
2018-12-10T05:29:00.581Z,74.07
2018-12-10T05:29:31.701Z,72.92
2018-12-10T05:30:02.816Z,69.35
2018-12-10T05:30:33.937Z,71.55
2018-12-10T05:31:05.049Z,70.87
2018-12-10T05:31:36.206Z,73.72
2018-12-10T05:32:07.340Z,67.65
2018-12-10T05:32:38.468Z,72.58
2018-12-10T05:33:09.586Z,71.72
2018-12-10T05:33:40.704Z,73.45
2018-12-10T05:34:11.807Z,79.75
2018-12-10T05:34:42.904Z,67.00
2018-12-10T05:35:14.038Z,77.25
2018-12-10T05:35:45.203Z,74.47
2018-12-10T05:36:16.301Z,78.67
2018-12-10T05:36:47.461Z,82.82
2018-12-10T05:37:18.590Z,78.65
2018-12-10T05:37:49.728Z,80.17
2018-12-10T05:38:20.827Z,81.92
2018-12-10T05:38:51.926Z,89.07
2018-12-10T05:39:23.034Z,84.22
2018-12-10T05:39:54.158Z,86.37
2018-12-10T05:40:25.269Z,89.07
2018-12-10T05:40:56.621Z,79.90
2018-12-10T05:41:28.738Z,83.42
2018-12-10T05:41:59.865Z,77.20
2018-12-10T05:42:30.995Z,77.12
2018-12-10T05:43:02.112Z,75.60
2018-12-10T05:43:33.216Z,78.72
2018-12-10T05:44:04.311Z,77.70
2018-12-10T05:44:35.472Z,80.60
2018-12-10T05:45:06.581Z,75.83
2018-12-10T05:45:37.701Z,75.95
2018-12-10T05:46:08.829Z,80.17
2018-12-10T05:46:40.207Z,80.92
2018-12-10T05:47:11.386Z,83.55
2018-12-10T05:47:42.536Z,79.30
2018-12-10T05:48:13.670Z,82.72
2018-12-10T05:48:44.795Z,79.32
2018-12-10T05:49:15.920Z,83.33
2018-12-10T05:49:47.059Z,89.03
2018-12-10T05:50:18.158Z,85.60
2018-12-10T05:50:49.376Z,80.17
2018-12-10T05:51:20.492Z,80.80
2018-12-10T05:51:51.640Z,87.00
2018-12-10T05:52:22.769Z,76.02
2018-12-10T05:52:53.898Z,75.83
2018-12-10T05:53:25.943Z,78.07
2018-12-10T05:53:57.059Z,79.45
2018-12-10T05:54:28.157Z,75.80
2018-12-10T05:54:59.268Z,80.40
2018-12-10T05:55:30.372Z,76.20
2018-12-10T05:56:01.496Z,79.27
2018-12-10T05:56:32.651Z,75.10
2018-12-10T05:57:03.765Z,75.50
2018-12-10T05:57:34.865Z,83.10
2018-12-10T05:58:06.044Z,77.15
2018-12-10T05:58:37.168Z,76.87
2018-12-10T05:59:08.301Z,75.92
2018-12-10T05:59:39.423Z,79.70
2018-12-10T06:00:10.540Z,72.40
2018-12-10T06:00:41.662Z,78.30
2018-12-10T06:01:12.772Z,80.17
2018-12-10T06:01:43.905Z,81.78
2018-12-10T06:02:15.029Z,81.67
2018-12-10T06:02:46.155Z,79.30
2018-12-10T06:03:17.340Z,83.60
2018-12-10T06:03:48.470Z,78.83
2018-12-10T06:04:19.628Z,75.05
2018-12-10T06:04:50.740Z,74.50
2018-12-10T06:05:21.842Z,73.95
2018-12-10T06:05:52.987Z,79.27
2018-12-10T06:06:24.092Z,68.05
2018-12-10T06:06:55.209Z,75.78
2018-12-10T06:07:26.324Z,79.92
2018-12-10T06:07:57.470Z,75.80
2018-12-10T06:08:28.621Z,69.87
2018-12-10T06:08:59.735Z,80.47
2018-12-10T06:09:30.841Z,80.30
2018-12-10T06:10:02.681Z,78.37
2018-12-10T06:10:33.930Z,72.72
2018-12-10T06:11:05.070Z,73.25
2018-12-10T06:11:36.185Z,65.80
2018-12-10T06:12:07.295Z,62.50
2018-12-10T06:12:38.424Z,59.35
2018-12-10T06:13:09.611Z,59.23
2018-12-10T06:13:40.735Z,53.87
2018-12-10T06:14:11.900Z,51.58
2018-12-10T06:14:43.050Z,51.95
2018-12-10T06:15:14.182Z,50.92
2018-12-10T06:15:45.308Z,54.13
2018-12-10T06:16:16.827Z,49.60
2018-12-10T06:16:48.003Z,51.95
2018-12-10T06:17:19.117Z,56.63
2018-12-10T06:17:50.240Z,60.28
2018-12-10T06:18:21.394Z,56.10
2018-12-10T06:18:52.521Z,51.95
2018-12-10T06:19:23.709Z,52.85
2018-12-10T06:19:54.934Z,53.02
2018-12-10T06:20:26.083Z,53.38
2018-12-10T06:20:57.289Z,55.40
2018-12-10T06:21:28.461Z,59.18
2018-12-10T06:21:59.580Z,56.88
2018-12-10T06:22:30.685Z,55.43
2018-12-10T06:23:01.837Z,58.40
2018-12-10T06:23:32.992Z,56.75
2018-12-10T06:24:04.115Z,57.78
2018-12-10T06:24:35.225Z,55.23
2018-12-10T06:25:06.354Z,59.25
2018-12-10T06:25:37.459Z,62.83
2018-12-10T06:26:08.602Z,58.02
2018-12-10T06:26:39.702Z,57.73
2018-12-10T06:27:10.941Z,54.73
2018-12-10T06:27:42.039Z,57.55
2018-12-10T06:28:13.138Z,55.80
2018-12-10T06:28:45.087Z,63.70
2018-12-10T06:29:16.268Z,58.70
2018-12-10T06:29:47.426Z,59.60
2018-12-10T06:30:18.545Z,58.85
2018-12-10T06:30:49.707Z,59.35
2018-12-10T06:31:20.833Z,60.28
2018-12-10T06:31:51.944Z,56.35
2018-12-10T06:32:23.045Z,57.67
2018-12-10T06:32:54.143Z,60.12
2018-12-10T06:33:25.265Z,60.90
2018-12-10T06:33:56.405Z,55.58
2018-12-10T06:34:27.545Z,59.42
2018-12-10T06:34:58.645Z,58.78
2018-12-10T06:35:29.788Z,57.15
2018-12-10T06:36:00.965Z,59.67
2018-12-10T06:36:32.077Z,60.73
2018-12-10T06:37:03.197Z,59.23
2018-12-10T06:37:37.666Z,58.55
2018-12-10T06:38:07.462Z,62.95
2018-12-10T06:38:38.680Z,63.63
2018-12-10T06:39:09.828Z,62.65
2018-12-10T06:39:40.969Z,58.92
2018-12-10T06:40:12.128Z,57.23
2018-12-10T06:40:44.414Z,62.08
2018-12-10T06:41:15.527Z,63.00
2018-12-10T06:41:46.639Z,60.78